Time;durP1;ratioP1;P1;durP2;ratioP2;P2;SDS_P1;SDS_P2;PMS_P1;PMS_P2;Temp;Humidity;BMP_temperature;BMP_pressure;BME280_temperature;BME280_humidity;BME280_pressure;Samples;Min_cycle;Max_cycle;Signal;HPM_P1;HPM_P2
2022/12/11 00:00:08;;;;;;;7.80;5.55;;;20.40;58.40;;;;;;5048486;27;93508;-82
2022/12/11 00:02:34;;;;;;;7.88;5.95;;;20.40;58.30;;;;;;5052811;27;92970;-83
2022/12/11 00:05:00;;;;;;;7.47;6.10;;;20.40;58.40;;;;;;5054917;27;92169;-84
2022/12/11 00:07:25;;;;;;;8.63;5.63;;;20.40;58.30;;;;;;5052757;27;91313;-83
2022/12/11 00:09:51;;;;;;;7.38;5.65;;;20.30;58.30;;;;;;5048801;27;93354;-82
2022/12/11 00:12:16;;;;;;;7.55;5.88;;;20.30;58.40;;;;;;5052102;27;93634;-80
2022/12/11 00:14:42;;;;;;;6.30;5.50;;;20.30;58.50;;;;;;5051519;27;93034;-83
2022/12/11 00:17:07;;;;;;;6.65;5.38;;;20.20;58.40;;;;;;5050945;27;92265;-83
2022/12/11 00:19:33;;;;;;;7.50;5.97;;;20.20;58.40;;;;;;5054592;27;93102;-83
2022/12/11 00:21:59;;;;;;;8.05;6.40;;;20.20;58.20;;;;;;5052856;27;93200;-82
2022/12/11 00:24:24;;;;;;;7.07;5.53;;;20.20;58.50;;;;;;5054751;27;93165;-84
2022/12/11 00:26:50;;;;;;;6.82;5.28;;;20.20;58.50;;;;;;5053392;27;92103;-82
2022/12/11 00:29:15;;;;;;;8.52;5.70;;;20.20;58.60;;;;;;5051094;27;92942;-81
2022/12/11 00:31:41;;;;;;;9.45;5.85;;;20.20;58.50;;;;;;5052354;27;91546;-84
2022/12/11 00:34:08;;;;;;;7.30;5.80;;;20.10;58.70;;;;;;5052777;27;92123;-84
2022/12/11 00:36:33;;;;;;;6.78;5.70;;;20.20;58.50;;;;;;5052801;27;92532;-82
2022/12/11 00:39:01;;;;;;;7.25;5.43;;;20.10;58.60;;;;;;5050658;27;94786;-81
2022/12/11 00:41:27;;;;;;;6.60;5.53;;;20.10;58.40;;;;;;5052169;27;93188;-81
2022/12/11 00:43:52;;;;;;;7.50;6.30;;;20.10;58.50;;;;;;5052598;27;92697;-81
2022/12/11 00:46:18;;;;;;;6.45;5.63;;;20.10;58.60;;;;;;5052946;27;92172;-84
2022/12/11 00:48:45;;;;;;;7.00;5.18;;;20.10;58.60;;;;;;5052698;27;92544;-84
2022/12/11 00:51:11;;;;;;;7.75;5.90;;;20.00;58.60;;;;;;5052258;27;92920;-82
2022/12/11 00:53:37;;;;;;;8.90;6.38;;;20.00;59.20;;;;;;5053957;27;92060;-84
2022/12/11 00:56:12;;;;;;;9.30;5.90;;;20.00;58.50;;;;;;5053796;27;91883;-83
2022/12/11 00:58:38;;;;;;;7.47;5.50;;;20.00;58.70;;;;;;5053263;27;93440;-83
2022/12/11 01:01:06;;;;;;;6.80;5.53;;;20.00;58.50;;;;;;5034900;27;94681;-84
2022/12/11 01:03:31;;;;;;;7.05;5.60;;;20.00;58.50;;;;;;5048990;27;93725;-85
2022/12/11 01:05:57;;;;;;;6.15;5.07;;;19.90;58.70;;;;;;5051847;27;92385;-84
2022/12/11 01:08:22;;;;;;;6.63;5.53;;;19.90;58.50;;;;;;5052206;27;93489;-82
2022/12/11 01:10:48;;;;;;;7.60;5.47;;;19.90;58.60;;;;;;5051251;27;92794;-85
2022/12/11 01:13:14;;;;;;;7.88;5.88;;;19.90;58.70;;;;;;5054555;27;92007;-84
2022/12/11 01:15:42;;;;;;;7.80;5.35;;;19.90;58.70;;;;;;5048880;27;92645;-82
2022/12/11 01:18:12;;;;;;;8.80;5.88;;;19.80;58.50;;;;;;5051140;27;92700;-82
2022/12/11 01:20:39;;;;;;;6.80;5.65;;;19.90;58.70;;;;;;5050561;27;92996;-81
2022/12/11 01:23:05;;;;;;;6.97;5.45;;;19.80;58.60;;;;;;5032279;27;92538;-84
2022/12/11 01:25:34;;;;;;;7.80;5.35;;;19.80;58.50;;;;;;5049585;27;92319;-84
2022/12/11 01:27:59;;;;;;;7.43;5.68;;;19.80;58.60;;;;;;5050879;27;93700;-84
2022/12/11 01:30:25;;;;;;;6.93;5.45;;;19.80;58.80;;;;;;5049993;27;94106;-83
2022/12/11 01:32:51;;;;;;;7.60;5.55;;;19.80;58.70;;;;;;5049762;27;92294;-83
2022/12/11 01:35:17;;;;;;;6.30;5.03;;;19.80;58.70;;;;;;5052543;27;92464;-84
2022/12/11 01:37:43;;;;;;;6.03;5.25;;;19.70;59.30;;;;;;5047677;27;92783;-83
2022/12/11 01:40:12;;;;;;;6.25;5.28;;;19.70;58.70;;;;;;5050384;27;92837;-84
2022/12/11 01:42:38;;;;;;;7.63;5.43;;;19.70;58.70;;;;;;5052707;27;92645;-85
2022/12/11 01:45:15;;;;;;;7.70;5.70;;;19.70;58.80;;;;;;5053268;27;91556;-83
2022/12/11 01:47:42;;;;;;;8.00;5.28;;;19.70;58.80;;;;;;5050468;27;92619;-84
2022/12/11 01:50:07;;;;;;;5.85;5.25;;;19.70;58.70;;;;;;5051838;27;93788;-83
2022/12/11 01:52:33;;;;;;;5.57;4.68;;;19.70;58.80;;;;;;5052584;27;93020;-84
2022/12/11 01:55:00;;;;;;;6.03;5.43;;;19.70;58.70;;;;;;5053947;27;92476;-82
2022/12/11 01:57:25;;;;;;;6.45;5.18;;;19.70;58.70;;;;;;5054149;27;93344;-84
2022/12/11 01:59:51;;;;;;;6.00;5.07;;;19.60;58.60;;;;;;5052054;27;92799;-84
2022/12/11 02:02:25;;;;;;;7.60;5.03;;;19.60;58.60;;;;;;5049633;27;94933;-82
2022/12/11 02:04:50;;;;;;;7.15;5.30;;;19.60;59.20;;;;;;5053126;27;92801;-84
2022/12/11 02:07:16;;;;;;;7.15;4.90;;;19.60;58.80;;;;;;5049254;27;93457;-85
2022/12/11 02:09:44;;;;;;;6.22;5.18;;;19.60;58.70;;;;;;5053104;27;92843;-81
2022/12/11 02:12:34;;;;;;;7.18;5.22;;;19.60;58.90;;;;;;5053808;27;93105;-84
2022/12/11 02:15:24;;;;;;;7.07;4.93;;;19.50;58.70;;;;;;5051882;27;92438;-83
2022/12/11 02:17:53;;;;;;;6.45;5.45;;;19.50;58.60;;;;;;5050981;27;94090;-83
2022/12/11 02:20:22;;;;;;;6.33;4.93;;;19.50;58.60;;;;;;5053381;27;93217;-83
2022/12/11 02:23:00;;;;;;;6.30;5.10;;;19.50;58.70;;;;;;5047612;27;92726;-84
2022/12/11 02:25:34;;;;;;;7.45;5.40;;;19.50;58.80;;;;;;5051377;27;92693;-85
2022/12/11 02:28:08;;;;;;;6.85;5.10;;;19.50;58.90;;;;;;5053381;27;93684;-83
2022/12/11 02:30:36;;;;;;;6.45;5.22;;;19.50;58.70;;;;;;5055074;27;92927;-83
2022/12/11 02:33:01;;;;;;;5.88;4.80;;;19.50;58.60;;;;;;5055696;27;92275;-85
2022/12/11 02:35:35;;;;;;;5.75;4.57;;;19.40;58.70;;;;;;5055828;27;91387;-84
2022/12/11 02:38:14;;;;;;;5.75;4.72;;;19.40;58.60;;;;;;5055831;27;93349;-84
2022/12/11 02:40:42;;;;;;;6.70;4.82;;;19.40;58.80;;;;;;5055803;27;93851;-84
2022/12/11 02:43:12;;;;;;;5.80;5.03;;;19.40;58.60;;;;;;5055197;27;92899;-85
2022/12/11 02:45:39;;;;;;;;;;;19.40;58.70;;;;;;5052386;27;92393;-83
2022/12/11 02:48:06;;;;;;;6.88;5.60;;;19.40;58.50;;;;;;5055897;27;93511;-82
2022/12/11 02:50:34;;;;;;;7.28;5.20;;;19.40;58.70;;;;;;5055354;27;92775;-83
2022/12/11 02:53:03;;;;;;;5.40;4.43;;;19.40;58.60;;;;;;5054321;27;92431;-83
2022/12/11 02:55:31;;;;;;;5.20;4.50;;;19.30;58.60;;;;;;5057088;27;93294;-83
2022/12/11 02:58:07;;;;;;;6.32;5.28;;;19.30;58.70;;;;;;5049960;27;93162;-85
2022/12/11 03:00:32;;;;;;;8.20;5.15;;;19.30;58.40;;;;;;5054888;27;91675;-83
2022/12/11 03:02:58;;;;;;;6.72;4.97;;;19.30;58.70;;;;;;5054903;27;92165;-84
2022/12/11 03:05:26;;;;;;;4.93;4.10;;;19.30;58.60;;;;;;5055867;27;92902;-83
2022/12/11 03:07:51;;;;;;;4.72;4.18;;;19.30;58.60;;;;;;5033809;27;97440;-82
2022/12/11 03:10:18;;;;;;;5.85;4.88;;;19.30;58.60;;;;;;5054227;27;93725;-82
2022/12/11 03:12:48;;;;;;;5.65;4.78;;;19.30;58.50;;;;;;5055573;27;92013;-83
2022/12/11 03:15:17;;;;;;;5.78;4.90;;;19.30;58.50;;;;;;5054299;27;92605;-84
2022/12/11 03:17:47;;;;;;;5.70;4.53;;;19.30;58.60;;;;;;5054927;27;93627;-81
2022/12/11 03:20:44;;;;;;;5.72;4.53;;;19.30;58.50;;;;;;5054025;27;92621;-84
2022/12/11 03:23:13;;;;;;;5.75;4.60;;;19.30;58.60;;;;;;5057268;27;92018;-84
2022/12/11 03:26:08;;;;;;;5.60;4.90;;;19.20;58.60;;;;;;5051129;27;92579;-80
2022/12/11 03:28:43;;;;;;;5.85;4.72;;;19.30;58.60;;;;;;4961597;28;98432;-84
2022/12/11 03:31:13;;;;;;;5.72;4.30;;;19.20;58.60;;;;;;4961807;28;97625;-81
2022/12/11 03:33:45;;;;;;;5.72;4.70;;;19.20;58.60;;;;;;4960800;28;93269;-84
2022/12/11 03:36:19;;;;;;;6.10;5.00;;;19.20;58.40;;;;;;4960938;28;92535;-81
2022/12/11 03:38:55;;;;;;;5.32;4.65;;;19.20;58.50;;;;;;4960672;28;92859;-81
2022/12/11 03:41:23;;;;;;;6.18;4.53;;;19.10;58.40;;;;;;4961214;28;92378;-82
2022/12/11 03:43:51;;;;;;;5.22;4.38;;;19.10;58.50;;;;;;4961950;28;92650;-83
2022/12/11 03:46:20;;;;;;;4.80;4.30;;;19.10;58.50;;;;;;4961188;28;92360;-83
2022/12/11 03:48:48;;;;;;;5.18;4.18;;;19.10;58.40;;;;;;4961014;28;93681;-84
2022/12/11 03:51:15;;;;;;;5.35;4.78;;;19.10;58.40;;;;;;4961485;28;92883;-81
2022/12/11 03:53:42;;;;;;;5.82;4.47;;;19.10;58.60;;;;;;4960727;28;92377;-81
2022/12/11 03:56:10;;;;;;;5.80;4.55;;;19.10;58.70;;;;;;4960258;28;92877;-84
2022/12/11 03:58:37;;;;;;;5.10;4.57;;;19.10;58.50;;;;;;4961024;28;94728;-84
2022/12/11 04:01:07;;;;;;;4.90;4.40;;;19.10;58.70;;;;;;4960888;28;93803;-83
2022/12/11 04:03:32;;;;;;;6.43;4.60;;;19.10;58.50;;;;;;4961177;28;92451;-82
2022/12/11 04:05:58;;;;;;;5.25;4.45;;;19.00;58.40;;;;;;5022679;27;92391;-84
2022/12/11 04:08:24;;;;;;;5.20;4.47;;;19.10;58.50;;;;;;5055577;27;94268;-81
2022/12/11 04:11:33;;;;;;;5.35;4.72;;;19.00;58.60;;;;;;5050394;27;93669;-83
2022/12/11 04:13:40;;;;;;;5.63;4.47;;;19.10;58.70;;;;;;5054246;27;92889;-82
2022/12/11 04:16:07;;;;;;;4.85;4.10;;;19.00;58.40;;;;;;5055105;27;92087;-82
2022/12/11 04:24:14;;;;;;;6.07;4.50;;;19.00;58.50;;;;;;5053613;27;92988;-82
2022/12/11 04:26:40;;;;;;;5.60;4.22;;;19.00;58.50;;;;;;5053576;27;92753;-81
2022/12/11 04:29:06;;;;;;;6.13;4.47;;;19.00;58.40;;;;;;5053906;27;93409;-81
2022/12/11 04:31:31;;;;;;;5.55;4.60;;;19.00;58.40;;;;;;5053232;27;92771;-82
2022/12/11 04:33:57;;;;;;;4.65;3.80;;;19.00;58.40;;;;;;5052498;27;92641;-82
2022/12/11 04:36:23;;;;;;;5.70;4.65;;;18.90;58.50;;;;;;5053033;27;92231;-81
2022/12/11 04:38:48;;;;;;;4.75;4.22;;;18.90;58.30;;;;;;5052853;27;94070;-83
2022/12/11 04:41:15;;;;;;;5.05;4.55;;;18.90;58.30;;;;;;5052374;27;92782;-84
2022/12/11 04:43:43;;;;;;;5.05;4.30;;;18.90;58.30;;;;;;5054250;27;92928;-83
2022/12/11 04:46:15;;;;;;;5.70;4.67;;;18.90;58.20;;;;;;5052254;27;92185;-84
2022/12/11 04:48:41;;;;;;;5.43;4.50;;;18.90;58.30;;;;;;5050475;27;93037;-82
2022/12/11 04:51:07;;;;;;;6.03;4.40;;;18.90;58.90;;;;;;5049978;27;94123;-83
2022/12/11 04:53:34;;;;;;;4.57;4.00;;;18.90;58.30;;;;;;5050899;27;92243;-83
2022/12/11 04:56:00;;;;;;;4.45;4.03;;;18.90;58.20;;;;;;5051720;27;93003;-81
2022/12/11 04:58:26;;;;;;;4.78;4.15;;;18.90;58.30;;;;;;5053322;27;93470;-84
2022/12/11 05:00:52;;;;;;;4.88;4.00;;;18.90;58.40;;;;;;5052416;27;93445;-83
2022/12/11 05:03:18;;;;;;;5.72;4.45;;;18.90;58.40;;;;;;5053598;27;92378;-84
2022/12/11 05:05:52;;;;;;;4.53;3.88;;;18.80;58.30;;;;;;5050317;27;92009;-83
2022/12/11 05:08:21;;;;;;;4.70;4.10;;;18.80;58.20;;;;;;5053143;27;93280;-82
2022/12/11 05:10:57;;;;;;;4.72;4.10;;;18.80;58.30;;;;;;5051499;27;93494;-84
2022/12/11 05:13:22;;;;;;;4.55;4.03;;;18.80;58.40;;;;;;5051362;27;93333;-84
2022/12/11 05:15:48;;;;;;;4.88;4.00;;;18.80;58.20;;;;;;5054182;27;92139;-81
2022/12/11 05:18:14;;;;;;;4.80;4.15;;;18.70;58.30;;;;;;5033643;27;96494;-83
2022/12/11 05:20:39;;;;;;;4.47;3.72;;;18.80;58.30;;;;;;5050464;27;92957;-81
2022/12/11 05:23:05;;;;;;;5.07;4.10;;;18.70;58.20;;;;;;5050589;27;92701;-81
2022/12/11 05:25:32;;;;;;;5.57;4.32;;;18.70;58.30;;;;;;5050514;27;92507;-82
2022/12/11 05:27:57;;;;;;;4.45;4.05;;;18.70;58.20;;;;;;5050747;27;93382;-82
2022/12/11 05:30:23;;;;;;;4.63;3.80;;;18.70;58.30;;;;;;5055925;27;93126;-83
2022/12/11 05:32:49;;;;;;;5.43;4.00;;;18.70;58.40;;;;;;5048297;27;92658;-82
2022/12/11 05:35:14;;;;;;;5.07;3.75;;;18.70;58.40;;;;;;5049487;27;92600;-83
2022/12/11 05:37:40;;;;;;;5.43;4.00;;;18.70;58.40;;;;;;5051353;27;94531;-83
2022/12/11 05:40:06;;;;;;;4.15;3.50;;;18.70;58.30;;;;;;5053545;27;93568;-81
2022/12/11 05:42:33;;;;;;;4.57;3.88;;;18.70;58.20;;;;;;5047685;27;92080;-82
2022/12/11 05:44:58;;;;;;;5.10;4.10;;;18.70;58.20;;;;;;5054672;27;92735;-83
2022/12/11 05:47:24;;;;;;;4.03;3.63;;;18.70;58.20;;;;;;5051227;27;93083;-83
2022/12/11 05:49:50;;;;;;;5.70;4.35;;;18.70;58.20;;;;;;5052517;27;92193;-83
2022/12/11 05:52:16;;;;;;;4.13;3.55;;;18.70;58.20;;;;;;5036202;27;92517;-82
2022/12/11 05:54:42;;;;;;;4.65;4.15;;;18.70;58.40;;;;;;5052010;27;92802;-85
2022/12/11 05:57:08;;;;;;;5.05;3.83;;;18.60;58.30;;;;;;5053169;27;92680;-84
2022/12/11 05:59:33;;;;;;;4.82;3.90;;;18.70;58.40;;;;;;5053999;27;92825;-82
2022/12/11 06:01:59;;;;;;;5.13;4.07;;;18.60;58.50;;;;;;5053618;27;93618;-83
2022/12/11 06:04:25;;;;;;;4.65;4.03;;;18.70;58.30;;;;;;5034871;27;92795;-84
2022/12/11 06:06:53;;;;;;;4.18;3.78;;;18.70;58.30;;;;;;5053285;27;94935;-82
2022/12/11 06:09:19;;;;;;;4.95;4.13;;;18.60;58.30;;;;;;5054053;27;92721;-83
2022/12/11 06:11:44;;;;;;;4.22;3.78;;;18.70;58.40;;;;;;5053546;27;92553;-84
2022/12/11 06:14:10;;;;;;;4.95;4.20;;;18.60;58.10;;;;;;5053653;27;92002;-83
2022/12/11 06:16:36;;;;;;;5.28;4.05;;;18.60;58.20;;;;;;5056577;27;92933;-82
2022/12/11 06:19:02;;;;;;;4.20;3.50;;;18.60;58.20;;;;;;5055299;27;92783;-82
2022/12/11 06:21:32;;;;;;;3.92;3.40;;;18.70;58.20;;;;;;5055137;27;92572;-83
2022/12/11 06:24:00;;;;;;;4.65;4.10;;;18.70;58.00;;;;;;5055894;27;92522;-82
2022/12/11 06:26:26;;;;;;;4.97;4.22;;;18.60;57.70;;;;;;5052991;27;94889;-81
2022/12/11 06:28:52;;;;;;;6.85;4.22;;;18.70;58.20;;;;;;5056539;27;94325;-82
2022/12/11 06:31:19;;;;;;;4.32;3.85;;;18.80;58.20;;;;;;5056899;27;91979;-83
2022/12/11 06:33:45;;;;;;;5.70;3.60;;;18.90;57.80;;;;;;5054488;27;92923;-81
2022/12/11 06:36:19;;;;;;;7.40;4.63;;;18.90;57.40;;;;;;5054382;27;93031;-83
2022/12/11 06:38:46;;;;;;;5.45;3.67;;;19.00;57.90;;;;;;5053080;27;95837;-84
2022/12/11 06:41:13;;;;;;;6.45;3.78;;;19.10;57.70;;;;;;5054074;27;92343;-82
2022/12/11 06:43:40;;;;;;;5.07;4.07;;;19.20;57.50;;;;;;5056286;27;91265;-84
2022/12/11 06:46:10;;;;;;;4.60;3.42;;;19.40;57.60;;;;;;5051610;27;93269;-82
2022/12/11 06:48:37;;;;;;;4.53;3.47;;;19.60;56.40;;;;;;5053938;27;92317;-84
2022/12/11 06:51:11;;;;;;;5.28;2.83;;;19.80;57.00;;;;;;5054163;27;93211;-82
2022/12/11 06:53:37;;;;;;;5.18;3.28;;;19.90;56.80;;;;;;5052227;27;92437;-81
2022/12/11 06:56:09;;;;;;;5.63;3.75;;;20.10;56.60;;;;;;5050588;27;93206;-81
2022/12/11 06:58:36;;;;;;;4.78;3.42;;;20.20;56.40;;;;;;5054331;27;93587;-82
2022/12/11 07:01:03;;;;;;;4.38;3.35;;;20.30;56.00;;;;;;5052640;27;92653;-83
2022/12/11 07:03:29;;;;;;;6.90;3.25;;;20.40;56.10;;;;;;5055993;27;92607;-84
2022/12/11 07:06:00;;;;;;;5.13;3.30;;;20.40;55.90;;;;;;5055679;27;93152;-83
2022/12/11 07:08:27;;;;;;;4.20;3.35;;;20.40;55.70;;;;;;5055537;27;92382;-83
2022/12/11 07:10:52;;;;;;;4.65;3.20;;;20.40;55.80;;;;;;5054609;27;92109;-81
2022/12/11 07:13:18;;;;;;;3.72;3.13;;;20.40;55.80;;;;;;5055238;27;92598;-84
2022/12/11 07:15:44;;;;;;;4.10;3.40;;;20.30;55.70;;;;;;5055789;27;94084;-80
2022/12/11 07:18:09;;;;;;;4.80;3.45;;;20.30;55.70;;;;;;5053545;27;93778;-83
2022/12/11 07:20:35;;;;;;;3.80;3.00;;;20.30;55.70;;;;;;5054521;27;92039;-83
2022/12/11 07:23:01;;;;;;;5.03;3.15;;;20.20;55.80;;;;;;5055610;27;92558;-83
2022/12/11 07:25:26;;;;;;;3.45;3.13;;;20.20;56.00;;;;;;5057439;27;93066;-83
2022/12/11 07:27:52;;;;;;;3.67;2.97;;;20.10;56.00;;;;;;5053786;27;94582;-81
2022/12/11 07:30:18;;;;;;;3.35;2.97;;;20.10;56.00;;;;;;5052464;27;92626;-84
2022/12/11 07:32:43;;;;;;;3.92;3.42;;;20.10;56.20;;;;;;5051854;27;92153;-82
2022/12/11 07:35:09;;;;;;;4.55;3.03;;;20.10;56.00;;;;;;5054391;27;93642;-84
2022/12/11 07:37:35;;;;;;;3.40;2.85;;;20.00;55.90;;;;;;5053963;27;93238;-81
2022/12/11 07:40:00;;;;;;;3.88;3.22;;;20.00;56.20;;;;;;5053001;27;93672;-84
2022/12/11 07:42:27;;;;;;;5.35;3.33;;;19.90;56.20;;;;;;5053858;27;92582;-83
2022/12/11 07:44:52;;;;;;;3.67;3.03;;;19.90;56.30;;;;;;5050617;27;93569;-83
2022/12/11 07:47:18;;;;;;;3.80;3.13;;;20.00;56.20;;;;;;5059909;27;93441;-83
2022/12/11 07:49:44;;;;;;;3.72;2.97;;;20.10;55.90;;;;;;5050316;27;92780;-81
2022/12/11 07:52:09;;;;;;;4.05;3.08;;;20.10;56.00;;;;;;5057038;27;92370;-83
2022/12/11 07:54:35;;;;;;;4.25;3.38;;;20.10;56.00;;;;;;5054322;27;93474;-81
2022/12/11 07:57:00;;;;;;;5.50;3.60;;;20.20;56.00;;;;;;5051651;27;93032;-84
2022/12/11 07:59:26;;;;;;;43.70;12.68;;;20.30;55.90;;;;;;5053973;27;92539;-83
2022/12/11 08:01:51;;;;;;;43.10;11.93;;;20.30;55.50;;;;;;5052251;27;92995;-81
2022/12/11 08:04:17;;;;;;;32.60;11.02;;;20.30;54.50;;;;;;5055997;27;94541;-83
2022/12/11 08:06:43;;;;;;;36.83;10.43;;;20.30;54.10;;;;;;5051732;27;94033;-82
2022/12/11 08:09:10;;;;;;;31.27;8.85;;;20.30;54.20;;;;;;5052314;27;92780;-83
2022/12/11 08:11:37;;;;;;;33.00;9.02;;;20.30;54.70;;;;;;5055121;27;92361;-83
2022/12/11 08:14:05;;;;;;;26.63;9.52;;;20.30;55.00;;;;;;5052330;27;93260;-83
2022/12/11 08:16:31;;;;;;;39.65;12.35;;;20.20;54.90;;;;;;5051114;27;93187;-82
2022/12/11 08:18:58;;;;;;;41.78;12.93;;;20.20;53.90;;;;;;5052645;27;94371;-82
2022/12/11 08:21:26;;;;;;;37.47;12.50;;;20.20;53.30;;;;;;5051421;27;91764;-82
2022/12/11 08:23:53;;;;;;;38.05;13.25;;;20.20;53.00;;;;;;5052706;27;96309;-81
2022/12/11 08:26:24;;;;;;;35.95;11.02;;;20.10;52.70;;;;;;5054353;27;92498;-83
2022/12/11 08:28:50;;;;;;;36.03;13.25;;;20.10;52.50;;;;;;5056337;27;93468;-85
2022/12/11 08:31:17;;;;;;;36.25;11.10;;;20.10;52.70;;;;;;5054741;27;92268;-82
2022/12/11 08:33:43;;;;;;;30.52;11.27;;;20.10;53.00;;;;;;5053323;27;93566;-82
2022/12/11 08:36:11;;;;;;;37.75;12.50;;;20.10;51.40;;;;;;5053081;27;94067;-81
2022/12/11 08:38:37;;;;;;;27.43;10.83;;;20.10;49.40;;;;;;5052341;27;92670;-82
2022/12/11 08:41:14;;;;;;;22.95;9.98;;;20.10;48.80;;;;;;5053846;27;92292;-83
2022/12/11 08:43:40;;;;;;;22.45;10.63;;;20.00;48.60;;;;;;5050901;27;92751;-83
2022/12/11 08:46:06;;;;;;;23.13;9.88;;;20.00;48.80;;;;;;5053523;27;92957;-83
2022/12/11 08:48:33;;;;;;;26.55;9.98;;;20.00;49.40;;;;;;5053657;27;92605;-82
2022/12/11 08:51:00;;;;;;;25.38;10.25;;;20.10;48.40;;;;;;5054911;27;91951;-82
2022/12/11 08:53:28;;;;;;;24.00;9.95;;;20.10;48.40;;;;;;5052375;27;93675;-84
2022/12/11 08:55:59;;;;;;;22.38;9.88;;;20.10;47.80;;;;;;5051219;27;93748;-82
2022/12/11 08:58:25;;;;;;;22.38;9.55;;;20.10;47.90;;;;;;5051460;27;92386;-82
2022/12/11 09:00:50;;;;;;;24.33;8.82;;;20.10;48.10;;;;;;5056966;27;92763;-83
2022/12/11 09:03:16;;;;;;;21.70;9.27;;;20.10;49.60;;;;;;5054394;27;92678;-83
2022/12/11 09:05:41;;;;;;;23.80;8.75;;;20.20;50.00;;;;;;5053617;27;94008;-83
2022/12/11 09:08:07;;;;;;;20.50;8.10;;;20.20;50.50;;;;;;5052110;27;92488;-82
2022/12/11 09:10:32;;;;;;;18.83;7.50;;;20.20;51.10;;;;;;5055001;27;92157;-81
2022/12/11 09:12:58;;;;;;;24.50;8.60;;;20.20;51.80;;;;;;5052845;27;94315;-82
2022/12/11 09:15:24;;;;;;;23.75;9.15;;;20.30;52.10;;;;;;5050994;27;93069;-81
2022/12/11 09:17:49;;;;;;;25.73;10.63;;;20.40;53.20;;;;;;5052688;27;93573;-83
2022/12/11 09:20:15;;;;;;;22.48;10.38;;;20.40;54.00;;;;;;5052569;27;92642;-82
2022/12/11 09:22:41;;;;;;;17.80;7.60;;;20.50;54.90;;;;;;5052755;27;92650;-81
2022/12/11 09:25:08;;;;;;;21.42;8.73;;;20.60;52.90;;;;;;5048828;27;97526;-83
2022/12/11 09:27:37;;;;;;;19.05;8.02;;;20.60;54.60;;;;;;5036067;27;92310;-86
2022/12/11 09:30:03;;;;;;;23.73;8.97;;;20.60;54.90;;;;;;5036526;27;92624;-83
2022/12/11 09:32:29;;;;;;;19.92;8.52;;;20.70;54.50;;;;;;5050209;27;95557;-84
2022/12/11 09:34:54;;;;;;;15.93;8.43;;;20.70;54.80;;;;;;5051178;27;92237;-83
2022/12/11 09:37:20;;;;;;;19.67;9.30;;;20.70;53.20;;;;;;5055441;27;92617;-84
2022/12/11 09:39:46;;;;;;;17.50;8.23;;;20.60;51.20;;;;;;4979297;27;92699;-82
2022/12/11 09:42:34;;;;;;;19.35;7.45;;;20.50;49.70;;;;;;5046366;27;94597;-83
2022/12/11 09:45:02;;;;;;;18.15;8.20;;;20.50;49.50;;;;;;5057612;27;93823;-83
2022/12/11 09:47:34;;;;;;;31.95;9.82;;;20.40;47.30;;;;;;5054506;27;92632;-84
2022/12/11 09:50:08;;;;;;;35.55;9.88;;;20.40;47.00;;;;;;5057036;27;92377;-85
2022/12/11 09:53:00;;;;;;;34.55;9.10;;;20.40;48.60;;;;;;5054677;27;93202;-82
2022/12/11 09:55:34;;;;;;;27.40;8.32;;;20.50;46.50;;;;;;5056198;27;98074;-83
2022/12/11 09:58:28;;;;;;;21.60;8.40;;;20.40;44.90;;;;;;5056060;27;92498;-80
2022/12/11 10:01:13;;;;;;;25.23;8.43;;;20.40;44.60;;;;;;5054382;27;91776;-83
2022/12/11 10:04:05;;;;;;;17.77;7.38;;;20.40;45.00;;;;;;5056737;27;93700;-82
2022/12/11 10:06:31;;;;;;;18.73;7.60;;;20.30;43.50;;;;;;5053478;27;93436;-82
2022/12/11 10:09:05;;;;;;;21.77;8.02;;;20.30;43.50;;;;;;5055808;27;93245;-81
2022/12/11 10:11:50;;;;;;;16.88;6.65;;;20.30;43.50;;;;;;5056431;27;92469;-84
2022/12/11 10:14:27;;;;;;;14.77;7.47;;;20.30;43.50;;;;;;5000604;28;96174;-82
2022/12/11 10:17:19;;;;;;;12.48;7.03;;;20.30;43.40;;;;;;5001274;28;93377;-82
2022/12/11 10:19:45;;;;;;;15.35;6.97;;;20.40;43.20;;;;;;5001974;28;92518;-82
2022/12/11 10:22:19;;;;;;;12.30;6.60;;;20.30;42.80;;;;;;5003369;28;92686;-81
2022/12/11 10:24:57;;;;;;;13.05;6.13;;;20.30;42.80;;;;;;4983617;28;96861;-84
2022/12/11 10:27:30;;;;;;;11.02;6.30;;;20.30;42.70;;;;;;4985341;28;94393;-85
2022/12/11 10:30:15;;;;;;;10.55;5.70;;;20.30;42.70;;;;;;5002881;28;92504;-82
2022/12/11 10:33:13;;;;;;;15.68;6.18;;;20.30;43.40;;;;;;5003660;28;92955;-83
2022/12/11 10:35:43;;;;;;;13.68;6.07;;;20.40;42.80;;;;;;5000733;28;97469;-83
2022/12/11 10:38:20;;;;;;;15.30;5.88;;;20.50;43.30;;;;;;5001714;28;94350;-81
2022/12/11 10:40:53;;;;;;;13.35;6.00;;;20.40;43.60;;;;;;5001809;28;92399;-82
2022/12/11 10:43:19;;;;;;;11.30;5.25;;;20.50;44.30;;;;;;5002520;28;92336;-83
2022/12/11 10:45:53;;;;;;;14.60;5.28;;;20.60;45.50;;;;;;5038376;27;93266;-83
2022/12/11 10:48:19;;;;;;;10.93;4.63;;;20.60;45.70;;;;;;5056341;27;93540;-82
2022/12/11 10:51:02;;;;;;;10.98;4.90;;;20.60;46.30;;;;;;5054177;27;92386;-82
2022/12/11 10:53:29;;;;;;;10.68;4.20;;;20.60;46.90;;;;;;5056860;27;91752;-82
2022/12/11 10:55:57;;;;;;;18.60;5.05;;;20.60;47.20;;;;;;5055137;27;93198;-83
2022/12/11 10:58:27;;;;;;;10.40;4.30;;;20.60;47.50;;;;;;5055661;27;93354;-81
2022/12/11 11:01:07;;;;;;;7.78;3.92;;;20.60;47.80;;;;;;5054540;27;93319;-81
2022/12/11 11:03:35;;;;;;;9.15;5.22;;;20.60;47.80;;;;;;5057345;27;92556;-83
2022/12/11 11:06:16;;;;;;;8.85;4.68;;;20.50;47.40;;;;;;5056689;27;93252;-82
2022/12/11 11:08:45;;;;;;;8.50;5.10;;;20.50;48.10;;;;;;5056496;27;94046;-84
2022/12/11 11:11:20;;;;;;;7.07;4.55;;;20.50;49.20;;;;;;5058254;27;92869;-82
2022/12/11 11:13:45;;;;;;;9.60;4.95;;;20.50;49.70;;;;;;5055849;27;92604;-85
2022/12/11 11:16:14;;;;;;;12.60;3.90;;;20.50;49.50;;;;;;5038082;27;94573;-84
2022/12/11 11:18:42;;;;;;;7.63;4.03;;;20.50;49.30;;;;;;5053592;27;93509;-85
2022/12/11 11:21:17;;;;;;;11.05;4.35;;;20.50;49.30;;;;;;5055393;27;92368;-83
2022/12/11 11:23:43;;;;;;;6.75;3.88;;;20.60;49.40;;;;;;5053442;27;92464;-83
2022/12/11 11:26:11;;;;;;;16.45;5.10;;;20.60;49.50;;;;;;5056445;27;94610;-83
2022/12/11 11:28:41;;;;;;;15.88;4.22;;;20.70;49.90;;;;;;5054646;27;93712;-84
2022/12/11 11:31:14;;;;;;;12.75;4.60;;;20.80;50.30;;;;;;5054853;27;92269;-81
2022/12/11 11:33:58;;;;;;;10.02;4.55;;;21.00;51.10;;;;;;5055047;27;92967;-83
2022/12/11 11:36:26;;;;;;;11.88;5.50;;;21.00;51.20;;;;;;5055975;27;92515;-83
2022/12/11 11:39:11;;;;;;;10.68;4.95;;;21.00;50.70;;;;;;5052392;27;92758;-84
2022/12/11 11:41:46;;;;;;;15.02;4.90;;;20.90;51.10;;;;;;5057865;27;92471;-83
2022/12/11 11:44:17;;;;;;;14.65;4.72;;;20.90;51.10;;;;;;5052058;27;92049;-83
2022/12/11 11:46:53;;;;;;;11.52;4.43;;;20.90;51.10;;;;;;5054404;27;93364;-83
2022/12/11 11:49:51;;;;;;;11.80;4.88;;;20.70;51.70;;;;;;5055231;27;92973;-82
2022/12/11 11:52:44;;;;;;;10.17;4.40;;;20.50;52.10;;;;;;5053681;27;93608;-82
2022/12/11 11:55:45;;;;;;;4.85;3.90;;;20.40;52.30;;;;;;5054451;27;92656;-82
2022/12/11 11:58:18;;;;;;;10.63;4.22;;;20.30;53.20;;;;;;5053937;27;98494;-82
2022/12/11 12:00:43;;;;;;;13.23;4.80;;;20.20;52.70;;;;;;5051717;27;92735;-86
2022/12/11 12:03:13;;;;;;;11.68;4.18;;;20.20;52.60;;;;;;5054064;27;92667;-83
2022/12/11 12:05:51;;;;;;;16.67;4.25;;;20.30;52.80;;;;;;5051505;27;92522;-83
2022/12/11 12:08:35;;;;;;;9.07;4.38;;;20.40;52.60;;;;;;5056268;27;92512;-82
2022/12/11 12:11:16;;;;;;;11.65;4.45;;;20.40;52.40;;;;;;5053702;27;92242;-83
2022/12/11 12:13:44;;;;;;;12.38;4.72;;;20.50;52.60;;;;;;5052207;27;92275;-84
2022/12/11 12:16:25;;;;;;;11.55;4.10;;;20.60;52.00;;;;;;5034545;27;92775;-85
2022/12/11 12:19:12;;;;;;;13.32;4.20;;;20.60;51.90;;;;;;5034878;27;97624;-85
2022/12/11 12:21:43;;;;;;;19.13;4.43;;;20.60;51.50;;;;;;5035462;27;97356;-84
2022/12/11 12:24:09;;;;;;;13.48;4.28;;;20.60;51.80;;;;;;5053227;27;92140;-84
2022/12/11 12:26:38;;;;;;;9.48;4.03;;;20.50;52.20;;;;;;5055912;27;92406;-82
2022/12/11 12:29:22;;;;;;;;;;;20.50;52.20;;;;;;5046175;27;93503;-85
2022/12/11 12:31:54;;;;;;;9.85;3.95;;;20.50;52.40;;;;;;5036835;27;95356;-84
2022/12/11 12:35:01;;;;;;;11.18;4.03;;;20.40;52.40;;;;;;5053165;27;92630;-84
2022/12/11 12:37:54;;;;;;;8.75;4.28;;;20.30;52.30;;;;;;4948890;28;91734;-84
2022/12/11 12:40:27;;;;;;;8.85;4.03;;;20.30;52.40;;;;;;4952489;28;97680;-82
2022/12/11 12:43:01;;;;;;;8.90;3.90;;;20.30;52.70;;;;;;4950760;28;95688;-83
2022/12/11 12:45:34;;;;;;;10.18;3.35;;;20.40;52.70;;;;;;4953146;28;93440;-82
2022/12/11 12:48:00;;;;;;;10.13;4.25;;;20.40;52.60;;;;;;4947695;28;92808;-82
2022/12/11 12:50:35;;;;;;;8.40;3.65;;;20.40;52.50;;;;;;4949413;28;93418;-82
2022/12/11 12:53:03;;;;;;;10.07;3.63;;;20.40;52.40;;;;;;4950759;28;92839;-82
2022/12/11 12:55:30;;;;;;;15.10;3.85;;;20.40;52.40;;;;;;4950767;28;92839;-81
2022/12/11 12:58:19;;;;;;;9.45;3.65;;;20.40;52.60;;;;;;4952392;28;92628;-81
2022/12/11 13:00:44;;;;;;;6.60;3.17;;;20.40;52.50;;;;;;4883464;28;93285;-82